Skip Navigation Links
NOAA logo - Click to go to the NOAA homepage
NOAA's National Weather Service
Alaska Aviation Weather Unit
  NWS logo - Click to go to the NWS homepage
Left Navbar Graphic     19 AKDT = 03 GMT

   
NOAA is celebrating 200 years of science, service, and stewardship. Visit the NOAA 200th celebration Web site to learn more.
USA.gov is the U.S. Government's official Web portal to all Federal, state and local government Web resources and services.
Facebook
NWS on Facebook

Important Change Regarding the AAWU Web Presence

 

Over the last several months, the AAWU has been working to navigate its webpages to a nationally supported server. Security, as well as other needs, have necessitated the change.  In the process, we have made an effort to enhance the functionality of our website, as well as some of our products. As of June 20, 2017, aawu.arh.noaa.gov will be discontinued. The new AAWU web address is weather.gov/aawu. It is now live and will run in-parallel with the old site until it is discontinued. Please send any feedback or questions regarding the new webpages to nws.ar.aawu.webauthors@noaa.gov.  Thank you for your patience during this time of transition.
AAWU Home :: Display TAF Add Bookmark
TAF PAGY 242340Z 2500/2524 21016G26KT P6SM BKN060
     FM250600 21010G20KT P6SM OVC050
     FM251200 21018G28KT P6SM OVC050
     FM251800 21018G28KT P6SM VCSH SCT030 OVC050
      AMD LTD TO CLD VIS AND WIND=
METAR PAGY 242153Z AUTO 20018G24KT 10SM BKN060 13/03 A3014 RMK AO2
     SLP208 T01280028 TSNO=

METAR PAGY 242253Z AUTO 20017G25KT 10SM OVC060 13/03 A3014 RMK AO2 PK
     WND 19027/2201 SLP207 T01280033 TSNO=

METAR PAGY 242353Z AUTO 20018G25KT 10SM OVC060 13/03 A3013 RMK AO2
     SLP203 T01280028 10133 20117 57009 TSNO=

METAR PAGY 250053Z AUTO 21020G27KT 10SM OVC060 12/03 A3012 RMK AO2
 PK WND 21027/0046 SLP199 T01220028 TSNO=

METAR PAGY 250153Z AUTO 20021KT 10SM BKN060 OVC080 13/03 A3011 RMK AO2
     PK WND 21031/0114 SLP195 T01280028 TSNO=

METAR PAGY 250253Z AUTO 21018KT 10SM OVC060 12/03 A3010 RMK AO2 PK
 WND 20027/0240 SLP193 T01220028 56009 TSNO=


NOAA's National Weather Service
Alaska Aviation Weather Unit
6930 Sand Lake Road
Anchorage, AK 99502-1845
Disclaimer
Credits
Glossary
Privacy Policy
About Us
Career Opportunities
Contact AAWU Internet Services Site last modified: April, 17th 2012